Time;durP1;ratioP1;P1;durP2;ratioP2;P2;SDS_P1;SDS_P2;PMS_P1;PMS_P2;Temp;Humidity;BMP_temperature;BMP_pressure;BME280_temperature;BME280_humidity;BME280_pressure;Samples;Min_cycle;Max_cycle;Signal;HPM_P1;HPM_P2
2024/04/17 00:01:32;;;;;;;;;;;5.80;99.90;;;;;;5417495;26;19941;-73
2024/04/17 00:03:57;;;;;;;;;;;5.90;99.90;;;;;;5417233;26;20297;-73
2024/04/17 00:06:23;;;;;;;;;;;5.90;99.90;;;;;;5386256;26;19965;-73
2024/04/17 00:08:48;;;;;;;;;;;5.90;99.90;;;;;;5415254;26;20309;-73
2024/04/17 00:11:14;;;;;;;;;;;5.90;99.90;;;;;;5386105;26;19929;-73
2024/04/17 00:13:39;;;;;;;;;;;5.80;99.90;;;;;;5417431;26;19933;-73
2024/04/17 00:16:05;;;;;;;;;;;5.80;99.90;;;;;;5418136;26;19929;-73
2024/04/17 00:18:31;;;;;;;;;;;5.70;99.90;;;;;;5385010;26;19933;-73
2024/04/17 00:20:56;;;;;;;;;;;5.80;99.90;;;;;;5416921;26;19937;-73
2024/04/17 00:23:21;;;;;;;;;;;5.70;99.90;;;;;;5385815;26;20376;-73
2024/04/17 00:25:47;;;;;;;;;;;5.70;99.90;;;;;;5385893;26;19929;-74
2024/04/17 00:28:13;;;;;;;;;;;5.60;99.90;;;;;;5385643;26;20334;-73
2024/04/17 00:30:39;;;;;;;;;;;5.60;99.90;;;;;;5385109;26;19929;-73
2024/04/17 00:33:04;;;;;;;;;;;5.60;99.90;;;;;;5416417;26;19929;-73
2024/04/17 00:35:30;;;;;;;;;;;5.60;99.90;;;;;;5417454;26;20347;-73
2024/04/17 00:37:56;;;;;;;;;;;5.60;99.90;;;;;;5417151;26;20368;-73
2024/04/17 00:40:21;;;;;;;;;;;5.50;99.90;;;;;;5385307;26;19929;-73
2024/04/17 00:42:47;;;;;;;;;;;5.60;99.90;;;;;;5417052;26;20360;-73
2024/04/17 00:45:13;;;;;;;;;;;5.60;99.90;;;;;;5386005;26;19961;-73
2024/04/17 00:47:38;;;;;;;;;;;5.50;99.90;;;;;;5416631;26;19998;-73
2024/04/17 00:50:06;;;;;;;;;;;5.50;99.90;;;;;;5384257;26;19957;-73
2024/04/17 00:52:31;;;;;;;;;;;5.50;99.90;;;;;;5417183;26;19945;-73
2024/04/17 00:54:58;;;;;;;;;;;5.40;99.90;;;;;;5415291;26;19929;-73
2024/04/17 00:57:23;;;;;;;;;;;5.40;99.90;;;;;;5385831;26;20359;-73
2024/04/17 00:59:49;;;;;;;;;;;5.40;99.90;;;;;;5385182;26;19929;-73
2024/04/17 01:02:14;;;;;;;;;;;5.40;99.90;;;;;;5385041;26;20328;-73
2024/04/17 01:04:40;;;;;;;;;;;5.30;99.90;;;;;;5379529;26;19929;-73
2024/04/17 01:07:05;;;;;;;;;;;5.30;99.90;;;;;;5407702;26;19929;-73
2024/04/17 01:09:31;;;;;;;;;;;5.30;99.90;;;;;;5416419;26;19937;-73
2024/04/17 01:11:56;;;;;;;;;;;5.30;99.90;;;;;;5416493;26;20485;-73
2024/04/17 01:14:22;;;;;;;;;;;5.30;99.90;;;;;;5385439;26;19939;-73
2024/04/17 01:16:47;;;;;;;;;;;5.30;99.90;;;;;;5385404;26;20388;-73
2024/04/17 01:19:13;;;;;;;;;;;5.20;99.90;;;;;;5384981;26;19957;-73
2024/04/17 01:21:39;;;;;;;;;;;5.20;99.90;;;;;;5415365;26;19941;-73
2024/04/17 01:24:04;;;;;;;;;;;5.10;99.90;;;;;;5385249;26;19929;-73
2024/04/17 01:26:30;;;;;;;;;;;5.10;99.90;;;;;;5416192;26;19941;-73
2024/04/17 01:28:55;;;;;;;;;;;5.10;99.90;;;;;;5416460;26;20291;-74
2024/04/17 01:31:21;;;;;;;;;;;5.00;99.90;;;;;;5416462;26;19941;-73
2024/04/17 01:33:46;;;;;;;;;;;5.00;99.90;;;;;;5416476;26;19929;-73
2024/04/17 01:36:11;;;;;;;;;;;5.00;99.90;;;;;;5416204;26;19936;-73
2024/04/17 01:38:37;;;;;;;;;;;4.90;99.90;;;;;;5415687;26;20501;-73
2024/04/17 01:41:03;;;;;;;;;;;4.90;99.90;;;;;;5415698;26;19929;-73
2024/04/17 01:43:30;;;;;;;;;;;4.90;99.90;;;;;;5385245;26;20384;-73
2024/04/17 01:45:56;;;;;;;;;;;4.80;99.90;;;;;;5416217;26;19929;-73
2024/04/17 01:48:21;;;;;;;;;;;4.80;99.90;;;;;;5384714;26;20264;-73
2024/04/17 01:50:47;;;;;;;;;;;4.70;99.90;;;;;;5384359;26;19936;-73
2024/04/17 01:53:12;;;;;;;;;;;4.70;99.90;;;;;;5378996;26;19929;-73
2024/04/17 01:55:38;;;;;;;;;;;4.70;99.90;;;;;;5409524;26;19929;-73
2024/04/17 01:58:03;;;;;;;;;;;4.60;99.90;;;;;;5413289;26;19937;-73
2024/04/17 02:00:29;;;;;;;;;;;4.60;99.90;;;;;;5383952;26;19933;-73
2024/04/17 02:02:54;;;;;;;;;;;4.60;99.90;;;;;;5416402;26;19998;-72
2024/04/17 02:05:20;;;;;;;;;;;4.70;99.90;;;;;;5384203;26;19929;-73
2024/04/17 02:07:46;;;;;;;;;;;4.70;99.90;;;;;;5384835;26;20286;-72
2024/04/17 02:10:11;;;;;;;;;;;4.60;99.90;;;;;;5414250;26;19936;-73
2024/04/17 02:12:37;;;;;;;;;;;4.60;99.90;;;;;;5415996;26;19936;-73
2024/04/17 02:15:02;;;;;;;;;;;4.50;99.90;;;;;;5415874;26;19928;-73
2024/04/17 02:17:28;;;;;;;;;;;4.60;99.90;;;;;;5384255;26;20458;-74
2024/04/17 02:19:53;;;;;;;;;;;4.50;99.90;;;;;;5383515;26;19929;-73
2024/04/17 02:22:19;;;;;;;;;;;4.60;99.90;;;;;;5401553;26;20464;-73
2024/04/17 02:24:44;;;;;;;;;;;4.50;99.90;;;;;;5407146;26;19935;-73
2024/04/17 02:27:09;;;;;;;;;;;4.50;99.90;;;;;;5415119;26;20022;-74
2024/04/17 02:29:35;;;;;;;;;;;4.50;99.90;;;;;;5414015;26;19929;-73
2024/04/17 02:32:00;;;;;;;;;;;4.50;99.90;;;;;;5384513;26;19937;-73
2024/04/17 02:34:26;;;;;;;;;;;4.60;99.90;;;;;;5416230;26;19936;-73
2024/04/17 02:36:51;;;;;;;;;;;4.50;99.90;;;;;;5384712;26;19937;-73
2024/04/17 02:39:17;;;;;;;;;;;4.50;99.90;;;;;;5415226;26;19929;-73
2024/04/17 02:41:42;;;;;;;;;;;4.40;99.90;;;;;;5416624;26;19953;-73
2024/04/17 02:44:08;;;;;;;;;;;4.40;99.90;;;;;;5415329;26;19933;-73
2024/04/17 02:46:33;;;;;;;;;;;4.40;99.90;;;;;;5384824;26;19929;-73
2024/04/17 02:48:59;;;;;;;;;;;4.40;99.90;;;;;;5415767;26;20455;-72
2024/04/17 02:51:25;;;;;;;;;;;4.40;99.90;;;;;;5416650;26;19929;-73
2024/04/17 02:53:50;;;;;;;;;;;4.40;99.90;;;;;;5384711;26;20266;-73
2024/04/17 02:56:16;;;;;;;;;;;4.50;99.90;;;;;;5416068;26;19929;-74
2024/04/17 02:58:41;;;;;;;;;;;4.50;99.90;;;;;;5384022;26;19936;-74
2024/04/17 03:01:13;;;;;;;;;;;4.50;99.90;;;;;;5415267;26;19937;-73
2024/04/17 03:03:39;;;;;;;;;;;4.50;99.90;;;;;;5382718;26;20281;-73
2024/04/17 03:06:04;;;;;;;;;;;4.50;99.90;;;;;;5378029;26;19962;-73
2024/04/17 03:08:30;;;;;;;;;;;4.50;99.90;;;;;;5374720;26;20326;-73
2024/04/17 03:10:58;;;;;;;;;;;4.50;99.90;;;;;;5417771;26;19929;-73
2024/04/17 03:13:24;;;;;;;;;;;4.50;99.90;;;;;;5418388;26;19937;-74
2024/04/17 03:15:49;;;;;;;;;;;4.50;99.90;;;;;;5418592;26;19935;-73
2024/04/17 03:18:15;;;;;;;;;;;4.50;99.90;;;;;;5386810;26;20008;-74
2024/04/17 03:20:40;;;;;;;;;;;4.60;99.90;;;;;;5385958;26;19953;-74
2024/04/17 03:23:06;;;;;;;;;;;4.60;99.90;;;;;;5363721;26;19934;-73
2024/04/17 03:25:31;;;;;;;;;;;4.70;99.90;;;;;;5418291;26;19929;-73
2024/04/17 03:27:57;;;;;;;;;;;4.80;99.90;;;;;;5417389;26;19929;-73
2024/04/17 03:30:22;;;;;;;;;;;4.90;99.90;;;;;;5386597;26;19929;-73
2024/04/17 03:32:48;;;;;;;;;;;5.00;99.90;;;;;;5386446;26;19937;-73
2024/04/17 03:35:13;;;;;;;;;;;5.00;99.90;;;;;;5417275;26;19929;-74
2024/04/17 03:37:39;;;;;;;;;;;5.10;99.90;;;;;;5387020;26;19936;-74
2024/04/17 03:40:05;;;;;;;;;;;5.20;99.90;;;;;;5402789;26;20327;-73
2024/04/17 03:42:31;;;;;;;;;;;5.30;99.90;;;;;;5386692;26;19929;-73
2024/04/17 03:44:58;;;;;;;;;;;5.40;99.90;;;;;;5418011;26;19929;-73
2024/04/17 03:47:23;;;;;;;;;;;5.40;99.90;;;;;;5417732;26;19929;-73
2024/04/17 03:49:49;;;;;;;;;;;5.50;99.90;;;;;;5417567;26;19936;-73
2024/04/17 03:52:14;;;;;;;;;;;5.50;99.90;;;;;;5385436;26;19936;-73
2024/04/17 03:54:40;;;;;;;;;;;5.50;99.90;;;;;;5418308;26;19940;-74
2024/04/17 03:57:05;;;;;;;;;;;5.50;99.90;;;;;;5417789;26;19929;-74
2024/04/17 03:59:31;;;;;;;;;;;5.60;99.90;;;;;;5386018;26;20019;-73
2024/04/17 04:01:57;;;;;;;;;;;5.60;99.90;;;;;;5416386;26;19937;-73
2024/04/17 04:04:23;;;;;;;;;;;5.60;99.90;;;;;;5417784;26;19929;-74
2024/04/17 04:06:49;;;;;;;;;;;5.70;99.90;;;;;;5385918;26;19936;-74
2024/04/17 04:09:14;;;;;;;;;;;5.70;99.90;;;;;;5417199;26;20330;-74
2024/04/17 04:11:40;;;;;;;;;;;5.70;99.90;;;;;;5418227;26;19935;-73
2024/04/17 04:14:05;;;;;;;;;;;5.80;99.90;;;;;;5417751;26;20384;-73
2024/04/17 04:16:33;;;;;;;;;;;5.80;99.90;;;;;;5418078;26;19929;-74
2024/04/17 04:18:58;;;;;;;;;;;5.80;99.90;;;;;;5416976;26;20004;-73
2024/04/17 04:21:24;;;;;;;;;;;5.80;99.90;;;;;;5415166;26;19945;-74
2024/04/17 04:23:49;;;;;;;;;;;5.90;99.90;;;;;;5385930;26;19936;-74
2024/04/17 04:26:15;;;;;;;;;;;5.90;99.90;;;;;;5385928;26;20001;-74
2024/04/17 04:28:40;;;;;;;;;;;5.90;99.90;;;;;;5417627;26;20253;-74
2024/04/17 04:31:06;;;;;;;;;;;6.00;99.90;;;;;;5385143;26;20024;-73
2024/04/17 04:33:32;;;;;;;;;;;6.00;99.90;;;;;;5417400;26;19936;-74
2024/04/17 04:35:57;;;;;;;;;;;6.00;99.90;;;;;;5385249;26;19929;-73
2024/04/17 04:38:23;;;;;;;;;;;6.00;99.90;;;;;;5416634;26;19941;-73
2024/04/17 04:40:49;;;;;;;;;;;6.10;99.90;;;;;;5416430;26;19928;-73
2024/04/17 04:43:14;;;;;;;;;;;6.20;99.90;;;;;;5395048;26;19939;-74
2024/04/17 04:45:40;;;;;;;;;;;6.20;99.90;;;;;;5417217;26;19936;-73
2024/04/17 04:48:06;;;;;;;;;;;6.20;99.90;;;;;;5385607;26;19998;-73
2024/04/17 04:50:31;;;;;;;;;;;6.20;99.90;;;;;;5384495;26;19941;-73
2024/04/17 04:52:57;;;;;;;;;;;6.20;99.90;;;;;;5416805;26;19935;-74
2024/04/17 04:55:22;;;;;;;;;;;6.20;99.90;;;;;;5416479;26;19941;-74
2024/04/17 04:57:48;;;;;;;;;;;6.20;99.90;;;;;;5416092;26;20276;-74
2024/04/17 05:00:13;;;;;;;;;;;6.20;99.90;;;;;;5416784;26;19935;-73
2024/04/17 05:02:39;;;;;;;;;;;6.20;99.90;;;;;;5385666;26;19937;-74
2024/04/17 05:05:04;;;;;;;;;;;6.20;99.90;;;;;;5417302;26;20314;-74
2024/04/17 05:07:30;;;;;;;;;;;6.20;99.90;;;;;;5385309;26;20072;-74
2024/04/17 05:09:55;;;;;;;;;;;6.20;99.90;;;;;;5415844;26;19975;-73
2024/04/17 05:12:21;;;;;;;;;;;6.20;99.90;;;;;;5386146;26;20420;-74
2024/04/17 05:14:46;;;;;;;;;;;6.30;99.90;;;;;;5415729;26;19957;-73
2024/04/17 05:17:12;;;;;;;;;;;6.30;99.90;;;;;;5415622;26;19932;-73
2024/04/17 05:19:37;;;;;;;;;;;6.30;99.90;;;;;;5392130;26;19935;-73
2024/04/17 05:22:03;;;;;;;;;;;6.30;99.90;;;;;;5385156;26;19998;-73
2024/04/17 05:24:28;;;;;;;;;;;6.30;99.90;;;;;;5415234;26;19949;-73
2024/04/17 05:26:54;;;;;;;;;;;6.30;99.90;;;;;;5415824;26;19941;-73
2024/04/17 05:29:19;;;;;;;;;;;6.40;99.90;;;;;;5383869;26;20366;-73
2024/04/17 05:31:46;;;;;;;;;;;6.40;99.90;;;;;;5376952;26;20556;-73
2024/04/17 05:34:12;;;;;;;;;;;6.50;99.90;;;;;;5403335;26;20027;-74
2024/04/17 05:36:37;;;;;;;;;;;6.50;99.90;;;;;;5416384;26;19935;-74
2024/04/17 05:39:03;;;;;;;;;;;6.60;99.90;;;;;;5382941;26;19936;-74
2024/04/17 05:41:28;;;;;;;;;;;6.60;99.90;;;;;;5379631;26;19937;-75
2024/04/17 05:43:54;;;;;;;;;;;6.60;99.90;;;;;;5411712;26;19936;-75
2024/04/17 05:46:21;;;;;;;;;;;6.60;99.90;;;;;;5411236;26;20368;-74
2024/04/17 05:48:47;;;;;;;;;;;6.60;99.90;;;;;;5402343;26;19936;-74
2024/04/17 05:51:12;;;;;;;;;;;6.60;99.90;;;;;;5412514;26;19936;-74
2024/04/17 05:53:38;;;;;;;;;;;6.60;99.90;;;;;;5381782;26;19968;-74
2024/04/17 05:56:03;;;;;;;;;;;6.60;99.90;;;;;;5409721;26;19937;-75
2024/04/17 05:58:29;;;;;;;;;;;6.60;99.90;;;;;;5384562;26;19975;-75
2024/04/17 06:00:54;;;;;;;;;;;6.60;99.90;;;;;;5383989;26;20376;-74
2024/04/17 06:03:20;;;;;;;;;;;6.60;99.90;;;;;;5416011;26;19936;-75
2024/04/17 06:05:45;;;;;;;;;;;6.60;99.90;;;;;;5384344;26;20375;-74
2024/04/17 06:08:11;;;;;;;;;;;6.70;99.90;;;;;;5416608;26;20403;-75
2024/04/17 06:10:36;;;;;;;;;;;6.70;99.90;;;;;;5414553;26;19935;-75
2024/04/17 06:13:02;;;;;;;;;;;6.70;99.90;;;;;;5415738;26;19935;-75
2024/04/17 06:15:28;;;;;;;;;;;6.70;99.90;;;;;;5414460;26;20001;-75
2024/04/17 06:17:55;;;;;;;;;;;6.80;99.90;;;;;;5416249;26;20371;-74
2024/04/17 06:20:21;;;;;;;;;;;6.90;99.90;;;;;;5414976;26;20360;-75
2024/04/17 06:22:46;;;;;;;;;;;7.10;99.90;;;;;;5384220;26;19936;-75
2024/04/17 06:25:12;;;;;;;;;;;7.20;99.90;;;;;;5392982;26;20600;-75
2024/04/17 06:27:38;;;;;;;;;;;7.30;99.90;;;;;;5415927;26;19929;-75
2024/04/17 06:30:04;;;;;;;;;;;7.30;99.90;;;;;;5413554;26;20337;-76
2024/04/17 06:32:29;;;;;;;;;;;7.30;99.90;;;;;;5415566;26;20249;-75
2024/04/17 06:34:55;;;;;;;;;;;7.40;99.90;;;;;;5414964;26;19936;-74
2024/04/17 06:37:20;;;;;;;;;;;7.50;99.90;;;;;;5415404;26;19929;-75
2024/04/17 06:39:46;;;;;;;;;;;7.50;99.90;;;;;;5414789;26;19937;-75
2024/04/17 06:42:11;;;;;;;;;;;7.50;99.90;;;;;;5413039;26;19998;-75
2024/04/17 06:44:38;;;;;;;;;;;7.60;99.90;;;;;;5383532;26;19939;-75
2024/04/17 06:47:04;;;;;;;;;;;7.50;99.90;;;;;;5413448;26;20363;-74
2024/04/17 06:49:30;;;;;;;;;;;7.60;99.90;;;;;;5417057;26;19940;-74
2024/04/17 06:51:56;;;;;;;;;;;7.60;99.90;;;;;;5386899;26;20272;-74
2024/04/17 06:54:21;;;;;;;;;;;7.60;99.90;;;;;;5416768;26;20349;-75
2024/04/17 06:56:47;;;;;;;;;;;7.50;99.90;;;;;;5418462;26;19933;-74
2024/04/17 06:59:12;;;;;;;;;;;7.50;99.90;;;;;;5386252;26;19929;-75
2024/04/17 07:01:37;;;;;;;;;;;7.40;99.90;;;;;;5387185;26;19955;-74
2024/04/17 07:04:04;;;;;;;;;;;7.50;99.90;;;;;;5418165;26;19937;-75
2024/04/17 07:06:29;;;;;;;;;;;7.50;99.90;;;;;;5387228;26;19929;-74
2024/04/17 07:08:55;;;;;;;;;;;7.60;99.90;;;;;;5386474;26;19929;-75
2024/04/17 07:11:20;;;;;;;;;;;7.70;99.90;;;;;;5418282;26;19973;-74
2024/04/17 07:13:46;;;;;;;;;;;7.90;99.90;;;;;;5385333;26;19965;-74
2024/04/17 07:16:11;;;;;;;;;;;8.20;99.90;;;;;;5418553;26;19936;-74
2024/04/17 07:18:37;;;;;;;;;;;8.40;99.90;;;;;;5417793;26;19948;-75
2024/04/17 07:21:02;;;;;;;;;;;8.80;99.90;;;;;;5386545;26;19929;-74
2024/04/17 07:23:28;;;;;;;;;;;9.50;99.90;;;;;;5413724;26;19953;-75
2024/04/17 07:25:53;;;;;;;;;;;10.10;99.90;;;;;;5417987;26;19998;-74
2024/04/17 07:28:19;;;;;;;;;;;10.40;99.90;;;;;;5417313;26;19936;-74
2024/04/17 07:30:44;;;;;;;;;;;10.40;99.90;;;;;;5417745;26;19936;-74
2024/04/17 07:33:10;;;;;;;;;;;10.70;99.90;;;;;;5418280;26;19933;-74
2024/04/17 07:35:35;;;;;;;;;;;10.90;99.90;;;;;;5386872;26;19929;-74
2024/04/17 07:38:01;;;;;;;;;;;11.00;99.90;;;;;;5386488;26;20379;-74
2024/04/17 07:40:26;;;;;;;;;;;11.20;99.90;;;;;;5417697;26;20023;-74
2024/04/17 07:42:52;;;;;;;;;;;11.60;99.90;;;;;;5411924;26;20391;-75
2024/04/17 07:45:17;;;;;;;;;;;11.50;99.90;;;;;;5417841;26;19936;-74
2024/04/17 07:47:43;;;;;;;;;;;12.10;99.90;;;;;;5417986;26;20306;-74
2024/04/17 07:50:08;;;;;;;;;;;12.60;99.90;;;;;;5386334;26;19936;-74
2024/04/17 07:52:34;;;;;;;;;;;12.80;99.90;;;;;;5413335;26;19929;-74
2024/04/17 07:54:59;;;;;;;;;;;13.00;99.90;;;;;;5418015;26;20376;-75
2024/04/17 07:57:25;;;;;;;;;;;13.80;99.90;;;;;;5416489;26;19940;-74
2024/04/17 07:59:51;;;;;;;;;;;14.70;99.90;;;;;;5416854;26;19936;-74
2024/04/17 08:02:17;;;;;;;;;;;14.70;99.90;;;;;;5417516;26;19929;-74
2024/04/17 08:04:42;;;;;;;;;;;14.40;99.90;;;;;;5417937;26;20010;-74
2024/04/17 08:07:08;;;;;;;;;;;14.70;99.90;;;;;;5417528;26;20314;-73
2024/04/17 08:09:33;;;;;;;;;;;15.90;99.90;;;;;;5385970;26;19929;-74
2024/04/17 08:11:59;;;;;;;;;;;17.30;99.90;;;;;;5417574;26;19929;-73
2024/04/17 08:14:24;;;;;;;;;;;17.90;99.90;;;;;;5385519;26;19937;-74
2024/04/17 08:16:50;;;;;;;;;;;18.70;99.90;;;;;;5386642;26;19940;-73
2024/04/17 08:19:16;;;;;;;;;;;18.50;99.90;;;;;;5386238;26;19998;-74
2024/04/17 08:21:41;;;;;;;;;;;18.30;99.90;;;;;;5418325;26;20261;-73
2024/04/17 08:24:07;;;;;;;;;;;19.20;99.90;;;;;;5386452;26;19929;-75
2024/04/17 08:26:32;;;;;;;;;;;20.20;99.90;;;;;;5394593;26;19965;-74
2024/04/17 08:28:58;;;;;;;;;;;21.00;99.90;;;;;;5417275;26;19929;-74
2024/04/17 08:31:23;;;;;;;;;;;19.90;99.90;;;;;;5417512;26;19994;-74
2024/04/17 08:33:49;;;;;;;;;;;19.40;99.90;;;;;;5379510;26;19957;-74
2024/04/17 08:36:14;;;;;;;;;;;20.40;99.90;;;;;;5410866;26;19929;-75
2024/04/17 08:38:41;;;;;;;;;;;20.60;99.90;;;;;;5417636;26;19936;-74
2024/04/17 08:41:07;;;;;;;;;;;19.00;99.90;;;;;;5416979;26;19957;-74
2024/04/17 08:43:35;;;;;;;;;;;17.60;99.90;;;;;;5417222;26;19929;-73
2024/04/17 08:46:02;;;;;;;;;;;16.40;99.90;;;;;;5385644;26;19940;-74
2024/04/17 08:48:28;;;;;;;;;;;15.10;99.90;;;;;;5416926;26;19929;-74
2024/04/17 08:50:55;;;;;;;;;;;16.10;99.90;;;;;;5416630;26;19944;-74
2024/04/17 08:53:22;;;;;;;;;;;18.10;99.90;;;;;;5385917;26;19995;-74
2024/04/17 08:55:48;;;;;;;;;;;19.70;99.90;;;;;;5416798;26;19937;-74
2024/04/17 08:58:15;;;;;;;;;;;19.10;99.90;;;;;;5417261;26;19998;-74
2024/04/17 09:00:41;;;;;;;;;;;17.50;99.90;;;;;;5416918;26;19941;-74
2024/04/17 09:03:08;;;;;;;;;;;16.10;99.90;;;;;;5417412;26;20237;-73
2024/04/17 09:05:34;;;;;;;;;;;15.00;99.90;;;;;;5415700;26;20376;-74
2024/04/17 09:08:00;;;;;;;;;;;14.00;99.90;;;;;;5417095;26;19929;-74
2024/04/17 09:10:25;;;;;;;;;;;13.40;99.90;;;;;;5412067;26;19941;-74
2024/04/17 09:12:51;;;;;;;;;;;13.10;99.90;;;;;;5417203;26;19929;-73
2024/04/17 09:15:18;;;;;;;;;;;13.00;99.90;;;;;;5416623;26;19929;-73
2024/04/17 09:17:44;;;;;;;;;;;13.40;99.90;;;;;;5417220;26;19999;-74
2024/04/17 09:20:09;;;;;;;;;;;13.50;99.90;;;;;;5415849;26;19940;-73
2024/04/17 09:22:35;;;;;;;;;;;13.50;99.90;;;;;;5416589;26;19933;-73
2024/04/17 09:25:01;;;;;;;;;;;13.60;99.90;;;;;;5416769;26;19961;-73
2024/04/17 09:27:26;;;;;;;;;;;13.80;99.90;;;;;;5417291;26;19940;-73
2024/04/17 09:29:52;;;;;;;;;;;14.00;99.90;;;;;;5385192;26;19941;-73
2024/04/17 09:32:18;;;;;;;;;;;14.00;99.90;;;;;;5416606;26;19929;-73
2024/04/17 09:34:44;;;;;;;;;;;13.90;99.90;;;;;;5415981;26;19957;-73
2024/04/17 09:37:10;;;;;;;;;;;14.00;99.90;;;;;;5416688;26;19929;-73
2024/04/17 09:39:35;;;;;;;;;;;14.00;99.90;;;;;;5414996;26;19929;-73
2024/04/17 09:42:05;;;;;;;;;;;14.00;99.90;;;;;;5416899;26;19936;-73
2024/04/17 09:44:30;;;;;;;;;;;14.40;99.90;;;;;;5415881;26;19933;-73
2024/04/17 09:46:59;;;;;;;;;;;14.60;99.90;;;;;;5416565;26;19935;-74
2024/04/17 09:49:27;;;;;;;;;;;14.60;99.90;;;;;;5415610;26;19936;-73
2024/04/17 09:51:55;;;;;;;;;;;14.50;99.90;;;;;;5416631;26;20388;-73
2024/04/17 09:54:21;;;;;;;;;;;14.40;99.90;;;;;;5416517;26;19944;-73
2024/04/17 09:56:47;;;;;;;;;;;14.30;99.90;;;;;;5415363;26;19929;-73
2024/04/17 09:59:13;;;;;;;;;;;14.30;99.90;;;;;;5415722;26;19929;-74
2024/04/17 10:01:39;;;;;;;;;;;14.40;99.90;;;;;;5385170;26;19935;-74
2024/04/17 10:04:05;;;;;;;;;;;14.60;99.90;;;;;;5415582;26;19928;-74
2024/04/17 10:06:31;;;;;;;;;;;14.70;99.90;;;;;;5416140;26;19929;-73
2024/04/17 10:08:58;;;;;;;;;;;14.00;99.90;;;;;;5415450;26;19958;-73
2024/04/17 10:11:26;;;;;;;;;;;13.00;99.90;;;;;;5378062;26;19953;-74
2024/04/17 10:13:53;;;;;;;;;;;11.60;99.90;;;;;;5413468;26;19980;-73
2024/04/17 10:16:18;;;;;;;;;;;10.80;99.90;;;;;;5415532;26;19940;-73
2024/04/17 10:18:45;;;;;;;;;;;10.10;99.90;;;;;;5414461;26;19936;-74
2024/04/17 10:21:17;;;;;;;;;;;9.30;99.90;;;;;;5415088;26;19929;-74
2024/04/17 10:23:43;;;;;;;;;;;8.70;99.90;;;;;;5415469;26;20213;-73
2024/04/17 10:26:10;;;;;;;;;;;8.10;99.90;;;;;;5415262;26;20588;-74
2024/04/17 10:28:36;;;;;;;;;;;7.90;99.90;;;;;;5414892;26;19940;-74
2024/04/17 10:31:01;;;;;;;;;;;7.70;99.90;;;;;;5415077;26;20376;-73
2024/04/17 10:33:27;;;;;;;;;;;7.60;99.90;;;;;;5414777;26;19936;-74
2024/04/17 10:35:53;;;;;;;;;;;7.40;99.90;;;;;;5415350;26;19994;-74
2024/04/17 10:38:21;;;;;;;;;;;7.30;99.90;;;;;;5415219;26;19953;-74
2024/04/17 10:40:47;;;;;;;;;;;7.30;99.90;;;;;;5414662;26;20268;-73
2024/04/17 10:43:15;;;;;;;;;;;7.20;99.90;;;;;;5383080;26;19962;-74
2024/04/17 10:45:45;;;;;;;;;;;7.30;99.90;;;;;;5415074;26;20112;-73
2024/04/17 10:48:14;;;;;;;;;;;7.50;99.90;;;;;;5415921;26;19937;-72
2024/04/17 10:50:40;;;;;;;;;;;7.80;99.90;;;;;;5383702;26;19983;-73
2024/04/17 10:53:06;;;;;;;;;;;8.00;99.90;;;;;;5384432;26;20368;-73
2024/04/17 10:55:32;;;;;;;;;;;8.00;99.90;;;;;;5415341;26;20379;-74
2024/04/17 10:57:58;;;;;;;;;;;8.20;99.90;;;;;;5384202;26;19929;-73
2024/04/17 11:00:23;;;;;;;;;;;8.60;99.90;;;;;;5414451;26;20000;-73
2024/04/17 11:02:49;;;;;;;;;;;9.00;99.90;;;;;;5415296;26;20323;-73
2024/04/17 11:05:14;;;;;;;;;;;9.50;99.90;;;;;;5379696;26;19938;-73
2024/04/17 11:07:40;;;;;;;;;;;9.90;99.90;;;;;;5415965;26;19957;-74
2024/04/17 11:10:12;;;;;;;;;;;10.40;99.90;;;;;;5383538;26;19929;-73
2024/04/17 11:12:37;;;;;;;;;;;10.70;99.90;;;;;;5415129;26;19937;-73
2024/04/17 11:15:03;;;;;;;;;;;11.10;99.90;;;;;;5414825;26;19998;-73
2024/04/17 11:17:28;;;;;;;;;;;11.50;99.90;;;;;;5415489;26;19941;-76
2024/04/17 11:19:54;;;;;;;;;;;11.80;99.90;;;;;;5415407;26;19936;-72
2024/04/17 11:22:20;;;;;;;;;;;12.20;99.90;;;;;;5416404;26;19936;-73
2024/04/17 11:24:49;;;;;;;;;;;12.40;99.90;;;;;;5383694;26;19936;-74
2024/04/17 11:27:16;;;;;;;;;;;12.50;99.90;;;;;;5415724;26;19955;-73
2024/04/17 11:29:44;;;;;;;;;;;12.80;99.90;;;;;;5413717;26;21257;-73
2024/04/17 11:32:10;;;;;;;;;;;12.70;99.90;;;;;;5416328;26;19929;-73
2024/04/17 11:34:35;;;;;;;;;;;12.60;99.90;;;;;;5417438;26;19936;-73
2024/04/17 11:37:02;;;;;;;;;;;12.00;99.90;;;;;;5417814;26;19933;-73
2024/04/17 11:39:28;;;;;;;;;;;11.50;99.90;;;;;;5402109;26;19929;-73
2024/04/17 11:41:53;;;;;;;;;;;11.00;99.90;;;;;;5408489;26;19936;-73
2024/04/17 11:44:19;;;;;;;;;;;10.50;99.90;;;;;;5386328;26;19944;-73
2024/04/17 11:46:44;;;;;;;;;;;10.10;99.90;;;;;;5418064;26;19929;-72
2024/04/17 11:49:10;;;;;;;;;;;9.90;99.90;;;;;;5416681;26;19936;-73
2024/04/17 11:51:35;;;;;;;;;;;9.80;99.90;;;;;;5418120;26;20272;-72
2024/04/17 11:54:04;;;;;;;;;;;9.90;99.90;;;;;;5417624;26;19933;-73
2024/04/17 11:56:29;;;;;;;;;;;9.90;99.90;;;;;;5386252;26;19929;-73
2024/04/17 11:58:55;;;;;;;;;;;10.10;99.90;;;;;;5417295;26;19936;-74
2024/04/17 12:01:20;;;;;;;;;;;10.20;99.90;;;;;;5386526;26;19936;-72
2024/04/17 12:03:46;;;;;;;;;;;10.20;99.90;;;;;;5416974;26;19933;-73
2024/04/17 12:06:12;;;;;;;;;;;10.10;99.90;;;;;;5417570;26;19935;-73
2024/04/17 12:08:37;;;;;;;;;;;10.00;99.90;;;;;;5386506;26;19929;-73
2024/04/17 12:11:03;;;;;;;;;;;9.90;99.90;;;;;;5416867;26;19929;-72
2024/04/17 12:13:28;;;;;;;;;;;9.80;99.90;;;;;;5385569;26;19961;-72
2024/04/17 12:15:54;;;;;;;;;;;9.60;99.90;;;;;;5385964;26;19929;-73
2024/04/17 12:18:20;;;;;;;;;;;9.40;99.90;;;;;;5417172;26;19929;-73
2024/04/17 12:20:45;;;;;;;;;;;9.40;99.90;;;;;;5385311;26;19929;-73
2024/04/17 12:23:18;;;;;;;;;;;9.60;99.90;;;;;;5394338;26;19933;-72
2024/04/17 12:28:28;;;;;;;;;;;9.90;99.90;;;;;;5417196;26;19936;-73
2024/04/17 12:30:55;;;;;;;;;;;10.20;99.90;;;;;;5416541;26;19929;-72
2024/04/17 12:33:21;;;;;;;;;;;10.60;99.90;;;;;;5415831;26;20297;-73
2024/04/17 12:35:46;;;;;;;;;;;11.00;99.90;;;;;;5399398;26;19929;-73
2024/04/17 12:38:12;;;;;;;;;;;11.20;99.90;;;;;;5414661;26;19929;-73
2024/04/17 12:40:37;;;;;;;;;;;11.40;99.90;;;;;;5416597;26;19944;-72
2024/04/17 12:43:04;;;;;;;;;;;11.50;99.90;;;;;;5416639;26;20280;-72
2024/04/17 12:45:29;;;;;;;;;;;11.60;99.90;;;;;;5385377;26;19937;-72
2024/04/17 12:47:55;;;;;;;;;;;11.60;99.90;;;;;;5417703;26;20360;-72
2024/04/17 12:50:21;;;;;;;;;;;11.60;99.90;;;;;;5415558;26;19929;-73
2024/04/17 12:52:46;;;;;;;;;;;11.70;99.90;;;;;;5415818;26;20375;-73
2024/04/17 12:55:12;;;;;;;;;;;12.00;99.90;;;;;;5416368;26;20008;-73
2024/04/17 12:57:39;;;;;;;;;;;12.20;99.90;;;;;;5385133;26;19997;-72
2024/04/17 13:00:05;;;;;;;;;;;12.30;99.90;;;;;;5416580;26;19993;-73
2024/04/17 13:02:31;;;;;;;;;;;12.30;99.90;;;;;;5385433;26;19936;-72
2024/04/17 13:04:56;;;;;;;;;;;12.30;99.90;;;;;;5385235;26;19994;-73
2024/04/17 13:07:22;;;;;;;;;;;12.40;99.90;;;;;;5385410;26;19932;-73
2024/04/17 13:09:47;;;;;;;;;;;12.70;99.90;;;;;;5415720;26;19933;-72
2024/04/17 13:12:13;;;;;;;;;;;12.90;99.90;;;;;;5416650;26;20283;-72
2024/04/17 13:14:39;;;;;;;;;;;13.00;99.90;;;;;;5416766;26;19955;-73
2024/04/17 13:17:04;;;;;;;;;;;12.70;99.90;;;;;;5385095;26;19929;-72
2024/04/17 13:19:30;;;;;;;;;;;12.60;99.90;;;;;;5416081;26;19936;-73
2024/04/17 13:21:55;;;;;;;;;;;12.90;99.90;;;;;;5384874;26;19968;-73
2024/04/17 13:24:21;;;;;;;;;;;12.80;99.90;;;;;;5416247;26;19936;-72
2024/04/17 13:26:46;;;;;;;;;;;12.80;99.90;;;;;;5416701;26;19936;-72
2024/04/17 13:29:12;;;;;;;;;;;12.80;99.90;;;;;;5416251;26;19929;-73
2024/04/17 13:31:37;;;;;;;;;;;13.00;99.90;;;;;;5416334;26;19929;-73
2024/04/17 13:34:03;;;;;;;;;;;13.10;99.90;;;;;;5416060;26;19929;-72
2024/04/17 13:36:28;;;;;;;;;;;13.40;99.90;;;;;;5416490;26;19936;-72
2024/04/17 13:38:54;;;;;;;;;;;13.60;99.90;;;;;;5384520;26;20444;-72
2024/04/17 13:41:19;;;;;;;;;;;13.80;99.90;;;;;;5412164;26;19935;-72
2024/04/17 13:43:46;;;;;;;;;;;13.60;99.90;;;;;;5385283;26;20377;-72
2024/04/17 13:46:16;;;;;;;;;;;13.30;99.90;;;;;;5413010;26;19929;-72
2024/04/17 13:48:43;;;;;;;;;;;13.00;99.90;;;;;;5416294;26;19929;-72
2024/04/17 13:51:10;;;;;;;;;;;12.70;99.90;;;;;;5384857;26;19929;-72
2024/04/17 13:53:36;;;;;;;;;;;12.50;99.90;;;;;;5415164;26;19929;-72
2024/04/17 13:56:02;;;;;;;;;;;12.40;99.90;;;;;;5414610;26;20373;-72
2024/04/17 13:58:28;;;;;;;;;;;12.60;99.90;;;;;;5416292;26;19979;-72
2024/04/17 14:00:54;;;;;;;;;;;12.80;99.90;;;;;;5415402;26;19941;-72
2024/04/17 14:03:20;;;;;;;;;;;12.90;99.90;;;;;;5416221;26;19936;-72
2024/04/17 14:05:46;;;;;;;;;;;13.10;99.90;;;;;;5415857;26;19998;-71
2024/04/17 14:08:11;;;;;;;;;;;13.20;99.90;;;;;;5384544;26;19940;-72
2024/04/17 14:10:37;;;;;;;;;;;13.30;99.90;;;;;;5415457;26;19935;-72
2024/04/17 14:13:03;;;;;;;;;;;13.50;99.90;;;;;;5414643;26;19936;-72
2024/04/17 14:15:28;;;;;;;;;;;13.70;99.90;;;;;;5414864;26;19965;-72
2024/04/17 14:17:54;;;;;;;;;;;14.10;99.90;;;;;;5384407;26;19929;-72
2024/04/17 14:20:20;;;;;;;;;;;14.10;99.90;;;;;;5414978;26;20019;-72